Time;durP1;ratioP1;P1;durP2;ratioP2;P2;SDS_P1;SDS_P2;PMS_P1;PMS_P2;Temp;Humidity;BMP_temperature;BMP_pressure;BME280_temperature;BME280_humidity;BME280_pressure;Samples;Min_cycle;Max_cycle;Signal;HPM_P1;HPM_P2
2024/03/10 00:00:41;;;;;;;10.87;6.77;;;9.80;99.90;;;;;;5050956;28;20787;-70
2024/03/10 00:03:07;;;;;;;11.47;6.60;;;9.90;99.90;;;;;;5051229;28;20401;-69
2024/03/10 00:05:34;;;;;;;14.60;6.83;;;9.90;99.90;;;;;;5051462;28;20175;-70
2024/03/10 00:08:00;;;;;;;11.70;5.97;;;10.00;99.90;;;;;;5051022;28;20544;-70
2024/03/10 00:10:25;;;;;;;11.50;6.40;;;10.00;99.90;;;;;;5050936;28;20560;-70
2024/03/10 00:12:51;;;;;;;10.50;6.43;;;10.10;99.90;;;;;;5052232;28;20511;-69
2024/03/10 00:15:19;;;;;;;11.10;8.03;;;10.10;99.90;;;;;;5051876;28;20246;-70
2024/03/10 00:17:45;;;;;;;9.00;5.50;;;10.10;99.90;;;;;;5052182;28;20516;-70
2024/03/10 00:20:11;;;;;;;10.37;6.80;;;10.20;99.90;;;;;;5050902;28;20638;-70
2024/03/10 00:22:38;;;;;;;8.60;5.37;;;10.20;99.90;;;;;;5052049;28;20171;-69
2024/03/10 00:25:05;;;;;;;7.10;6.00;;;10.30;99.90;;;;;;5051562;28;20412;-70
2024/03/10 00:27:31;;;;;;;8.27;5.67;;;10.40;99.90;;;;;;5051936;28;20430;-70
2024/03/10 00:29:56;;;;;;;11.13;6.40;;;10.50;99.90;;;;;;5050827;28;20406;-70
2024/03/10 00:32:24;;;;;;;7.57;5.93;;;10.50;99.90;;;;;;5050734;28;20570;-69
2024/03/10 00:34:50;;;;;;;7.40;6.20;;;10.50;99.90;;;;;;5052213;28;20194;-69
2024/03/10 00:37:16;;;;;;;10.67;6.33;;;10.60;99.90;;;;;;5051928;28;20405;-70
2024/03/10 00:39:41;;;;;;;10.90;5.77;;;10.60;99.70;;;;;;5051710;28;20770;-70
2024/03/10 00:42:07;;;;;;;8.00;6.43;;;10.70;99.40;;;;;;5051870;28;20177;-70
2024/03/10 00:44:32;;;;;;;10.40;6.67;;;10.70;99.20;;;;;;5051582;28;20631;-70
2024/03/10 00:46:58;;;;;;;10.27;6.00;;;10.70;98.70;;;;;;5051757;28;20175;-70
2024/03/10 00:49:23;;;;;;;8.03;5.90;;;10.70;98.40;;;;;;5050356;28;20195;-70
2024/03/10 00:51:49;;;;;;;6.93;5.50;;;10.70;98.20;;;;;;5051409;28;20209;-70
2024/03/10 00:54:15;;;;;;;7.63;5.23;;;10.70;97.90;;;;;;5050012;28;20193;-70
2024/03/10 00:56:41;;;;;;;7.07;5.50;;;10.70;97.80;;;;;;5051727;28;20642;-70
2024/03/10 00:59:08;;;;;;;10.83;6.30;;;10.70;97.80;;;;;;5050433;28;20194;-70
2024/03/10 01:01:34;;;;;;;7.00;5.60;;;10.70;97.70;;;;;;5051709;28;20498;-70
2024/03/10 01:03:59;;;;;;;11.60;6.60;;;10.70;97.80;;;;;;5054998;28;20472;-70
2024/03/10 01:06:25;;;;;;;10.50;6.07;;;10.70;97.60;;;;;;5056058;28;20250;-70
2024/03/10 01:08:51;;;;;;;10.33;6.30;;;10.70;97.60;;;;;;5055592;28;20198;-70
2024/03/10 01:11:16;;;;;;;9.80;6.37;;;10.70;97.30;;;;;;5055725;28;20910;-70
2024/03/10 01:13:43;;;;;;;8.03;5.00;;;10.60;97.20;;;;;;5055403;28;20167;-70
2024/03/10 01:16:09;;;;;;;8.80;5.50;;;10.60;97.30;;;;;;5055767;28;20254;-70
2024/03/10 01:18:34;;;;;;;9.07;6.10;;;10.60;97.20;;;;;;5055568;28;20511;-70
2024/03/10 01:21:01;;;;;;;8.33;6.23;;;10.60;97.40;;;;;;5055564;28;20186;-70
2024/03/10 01:23:27;;;;;;;7.70;5.60;;;10.60;97.40;;;;;;5054037;28;20596;-70
2024/03/10 01:25:53;;;;;;;7.33;5.33;;;10.50;97.60;;;;;;5055385;28;20414;-69
2024/03/10 01:28:19;;;;;;;8.13;6.27;;;10.40;97.90;;;;;;5055412;28;20286;-69
2024/03/10 01:30:44;;;;;;;9.87;5.53;;;10.40;98.00;;;;;;5055399;28;20434;-70
2024/03/10 01:33:10;;;;;;;9.47;5.40;;;10.30;98.40;;;;;;5055323;28;20189;-70
2024/03/10 01:35:36;;;;;;;11.67;6.40;;;10.30;98.30;;;;;;5055127;28;20174;-70
2024/03/10 01:38:02;;;;;;;8.00;5.60;;;10.30;98.80;;;;;;5055101;28;20187;-70
2024/03/10 01:40:27;;;;;;;13.07;4.60;;;10.30;99.00;;;;;;5055223;28;20818;-70
2024/03/10 01:42:56;;;;;;;7.63;5.70;;;10.30;99.00;;;;;;5055193;28;20178;-69
2024/03/10 01:45:22;;;;;;;6.23;5.17;;;10.30;99.50;;;;;;5054888;28;20167;-70
2024/03/10 01:47:49;;;;;;;6.93;5.30;;;10.20;99.90;;;;;;5054794;28;20494;-70
2024/03/10 01:50:17;;;;;;;10.07;6.00;;;10.20;99.90;;;;;;5054970;28;20498;-70
2024/03/10 01:52:42;;;;;;;8.20;5.00;;;10.30;99.90;;;;;;5054842;28;20431;-69
2024/03/10 01:55:11;;;;;;;7.30;5.33;;;10.30;99.90;;;;;;5054739;28;20773;-70
2024/03/10 01:57:37;;;;;;;6.57;5.13;;;10.30;99.50;;;;;;5055619;28;20433;-70
2024/03/10 02:00:06;;;;;;;9.30;6.00;;;10.40;99.30;;;;;;5055137;28;20397;-70
2024/03/10 02:02:31;;;;;;;7.40;5.50;;;10.40;99.00;;;;;;5055134;28;20196;-70
2024/03/10 02:04:59;;;;;;;10.13;5.10;;;10.40;98.80;;;;;;5052928;28;20544;-70
2024/03/10 02:07:25;;;;;;;5.97;5.10;;;10.50;98.50;;;;;;5054623;28;20422;-70
2024/03/10 02:09:51;;;;;;;9.63;6.27;;;10.50;98.30;;;;;;5054306;28;20434;-70
2024/03/10 02:12:17;;;;;;;8.23;5.50;;;10.40;97.90;;;;;;5053295;28;20470;-70
2024/03/10 02:15:06;;;;;;;9.80;5.93;;;10.30;97.90;;;;;;5053329;28;20413;-70
2024/03/10 02:17:32;;;;;;;9.13;5.40;;;10.40;98.10;;;;;;5054460;28;20475;-70
2024/03/10 02:19:57;;;;;;;7.30;5.20;;;10.40;98.40;;;;;;5054462;28;20409;-70
2024/03/10 02:22:28;;;;;;;5.57;5.07;;;10.30;98.50;;;;;;5053179;28;20162;-70
2024/03/10 02:24:59;;;;;;;9.83;5.70;;;10.30;98.80;;;;;;5054374;28;20159;-70
2024/03/10 02:27:26;;;;;;;13.30;6.93;;;10.30;98.80;;;;;;5054335;28;20508;-70
2024/03/10 02:48:59;;;;;;;6.53;5.40;;;10.10;99.90;;;;;;5053938;28;20877;-70
2024/03/10 02:51:26;;;;;;;7.20;5.37;;;10.10;99.90;;;;;;5053700;28;20405;-70
2024/03/10 02:53:52;;;;;;;9.50;5.10;;;10.10;99.90;;;;;;5053567;28;20159;-70
2024/03/10 02:56:22;;;;;;;7.40;5.20;;;10.10;99.90;;;;;;5053577;28;20413;-70
2024/03/10 02:58:48;;;;;;;17.30;5.67;;;10.00;99.90;;;;;;5052504;28;20197;-70
2024/03/10 03:01:16;;;;;;;9.03;5.03;;;10.10;99.90;;;;;;5053677;28;20405;-70
2024/03/10 03:03:42;;;;;;;10.50;6.17;;;10.00;99.90;;;;;;5053426;28;20170;-70
2024/03/10 03:06:07;;;;;;;8.37;6.20;;;10.00;99.90;;;;;;5053681;28;20899;-70
2024/03/10 03:08:33;;;;;;;7.33;5.50;;;10.00;99.90;;;;;;5053488;28;20566;-70
2024/03/10 03:10:58;;;;;;;7.93;5.20;;;10.00;99.90;;;;;;5052219;28;20163;-70
2024/03/10 03:13:24;;;;;;;7.93;5.53;;;10.00;99.90;;;;;;5053315;28;20580;-70
2024/03/10 03:15:50;;;;;;;8.17;5.90;;;9.90;99.90;;;;;;5053340;28;20250;-70
2024/03/10 03:18:16;;;;;;;7.20;5.37;;;9.90;99.90;;;;;;5053321;28;20191;-70
2024/03/10 03:20:42;;;;;;;10.37;5.63;;;9.90;99.90;;;;;;5053164;28;20466;-70
2024/03/10 03:23:07;;;;;;;7.50;4.90;;;9.90;99.90;;;;;;5053106;28;20166;-70
2024/03/10 03:25:33;;;;;;;7.80;5.50;;;9.90;99.90;;;;;;5052856;28;20401;-70
2024/03/10 03:27:58;;;;;;;11.30;5.30;;;9.90;99.90;;;;;;5053038;28;20199;-70
2024/03/10 03:30:24;;;;;;;7.90;5.73;;;9.80;99.90;;;;;;5053065;28;20542;-70
2024/03/10 03:32:49;;;;;;;7.00;5.57;;;9.90;99.90;;;;;;5053047;28;20337;-70
2024/03/10 03:35:18;;;;;;;7.13;5.77;;;9.80;99.90;;;;;;5052799;28;20247;-70
2024/03/10 03:37:45;;;;;;;5.50;4.80;;;9.80;99.90;;;;;;5052978;28;20191;-70
2024/03/10 03:40:13;;;;;;;8.80;4.97;;;9.80;99.90;;;;;;5052931;28;20417;-70
2024/03/10 03:42:39;;;;;;;6.20;5.60;;;9.80;99.90;;;;;;5052847;28;20411;-70
2024/03/10 03:45:06;;;;;;;8.67;5.50;;;9.70;99.90;;;;;;5052438;28;20404;-70
2024/03/10 03:47:32;;;;;;;5.80;5.20;;;9.70;99.90;;;;;;5053065;28;20422;-70
2024/03/10 03:49:57;;;;;;;8.73;5.00;;;9.70;99.90;;;;;;5052787;28;20402;-70
2024/03/10 03:52:23;;;;;;;8.90;5.87;;;9.70;99.90;;;;;;5052599;28;20464;-70
2024/03/10 03:54:51;;;;;;;8.00;5.03;;;9.80;99.90;;;;;;5052009;28;20167;-70
2024/03/10 03:57:17;;;;;;;7.67;4.87;;;9.80;99.90;;;;;;5052352;28;20163;-70
2024/03/10 03:59:43;;;;;;;7.83;4.80;;;9.80;99.90;;;;;;5052561;28;20413;-70
2024/03/10 04:02:08;;;;;;;7.77;4.80;;;9.80;99.90;;;;;;5052381;28;20412;-70
2024/03/10 04:04:34;;;;;;;12.60;4.93;;;9.80;99.90;;;;;;5052179;28;20409;-70
2024/03/10 04:06:59;;;;;;;5.53;4.47;;;9.80;99.90;;;;;;5051002;28;20615;-70
2024/03/10 04:09:25;;;;;;;5.23;4.57;;;9.80;99.90;;;;;;5050992;28;20194;-70
2024/03/10 04:11:52;;;;;;;6.07;4.80;;;9.70;99.90;;;;;;5052277;28;20529;-70
2024/03/10 04:14:18;;;;;;;6.40;4.37;;;9.70;99.90;;;;;;5051999;28;20420;-70
2024/03/10 04:16:47;;;;;;;13.50;5.63;;;9.70;99.90;;;;;;5052316;28;20889;-70
2024/03/10 04:19:13;;;;;;;9.70;5.50;;;9.80;99.90;;;;;;5052195;28;20201;-70
2024/03/10 04:21:39;;;;;;;6.57;4.93;;;9.80;99.90;;;;;;5052109;28;20406;-70
2024/03/10 04:24:07;;;;;;;8.90;5.90;;;9.60;99.90;;;;;;5051954;28;20171;-70
2024/03/10 04:26:33;;;;;;;9.30;6.10;;;9.60;99.90;;;;;;5052351;28;20174;-70
2024/03/10 04:28:59;;;;;;;6.80;4.70;;;9.60;99.90;;;;;;5051929;28;20461;-70
2024/03/10 04:31:24;;;;;;;8.13;4.87;;;9.60;99.90;;;;;;5051778;28;20408;-70
2024/03/10 04:33:51;;;;;;;6.70;4.00;;;9.60;99.90;;;;;;5051691;28;20398;-70
2024/03/10 04:36:17;;;;;;;6.90;4.90;;;9.50;99.90;;;;;;5052493;28;20167;-70
2024/03/10 04:38:43;;;;;;;5.53;4.53;;;9.60;99.90;;;;;;5051922;28;20421;-70
2024/03/10 04:41:09;;;;;;;5.10;4.57;;;9.60;99.90;;;;;;5051915;28;20405;-70
2024/03/10 04:43:34;;;;;;;8.50;5.00;;;9.60;99.90;;;;;;5051738;28;20179;-70
2024/03/10 04:46:00;;;;;;;5.73;4.20;;;9.60;99.90;;;;;;5052025;28;20463;-70
2024/03/10 04:48:27;;;;;;;6.90;4.03;;;9.60;99.90;;;;;;5051764;28;20665;-70
2024/03/10 04:50:52;;;;;;;6.40;4.87;;;9.60;99.90;;;;;;5051683;28;20246;-70
2024/03/10 04:53:19;;;;;;;6.40;4.60;;;9.60;99.90;;;;;;5051456;28;20460;-70
2024/03/10 04:55:45;;;;;;;6.87;4.40;;;9.60;99.90;;;;;;5051666;28;20159;-70
2024/03/10 04:58:10;;;;;;;7.00;4.70;;;9.60;99.90;;;;;;5051892;28;20773;-70
2024/03/10 05:00:36;;;;;;;6.27;4.77;;;9.60;99.90;;;;;;5051745;28;20167;-70
2024/03/10 05:03:05;;;;;;;6.20;4.80;;;9.60;99.90;;;;;;5051662;28;20602;-70
2024/03/10 05:05:31;;;;;;;6.83;4.07;;;9.60;99.90;;;;;;5051002;28;20163;-70
2024/03/10 05:07:57;;;;;;;5.33;4.80;;;9.60;99.90;;;;;;5051542;28;20824;-70
2024/03/10 05:10:23;;;;;;;6.90;5.17;;;9.70;99.90;;;;;;5051665;28;20402;-70
2024/03/10 05:12:48;;;;;;;5.00;4.20;;;9.60;99.90;;;;;;5051638;28;20640;-70
2024/03/10 05:15:17;;;;;;;8.50;6.83;;;9.60;99.90;;;;;;5051389;28;20163;-70
2024/03/10 05:17:43;;;;;;;7.30;4.97;;;9.60;99.90;;;;;;5051370;28;20772;-70
2024/03/10 05:20:12;;;;;;;6.07;4.50;;;9.70;99.90;;;;;;5051336;28;20480;-70
2024/03/10 05:22:39;;;;;;;5.40;4.57;;;9.70;99.90;;;;;;5051457;28;20398;-70
2024/03/10 05:25:08;;;;;;;5.63;4.07;;;9.70;99.90;;;;;;5051226;28;20897;-70
2024/03/10 05:27:34;;;;;;;8.10;4.77;;;9.70;99.90;;;;;;5051426;28;20841;-70
2024/03/10 05:29:59;;;;;;;13.57;5.33;;;9.70;99.90;;;;;;5051549;28;20880;-70
2024/03/10 05:32:25;;;;;;;6.80;5.00;;;9.60;99.90;;;;;;5051314;28;20456;-70
2024/03/10 05:34:56;;;;;;;7.53;4.67;;;9.60;99.90;;;;;;5051097;28;20167;-70
2024/03/10 05:37:22;;;;;;;5.97;3.93;;;9.70;99.90;;;;;;5051606;28;20281;-70
2024/03/10 05:39:48;;;;;;;5.43;4.90;;;9.70;99.90;;;;;;5051421;28;20409;-70
2024/03/10 05:42:14;;;;;;;6.60;3.90;;;9.70;99.90;;;;;;5051269;28;20972;-70
2024/03/10 05:44:40;;;;;;;6.93;3.93;;;9.80;99.90;;;;;;5051056;28;20213;-70
2024/03/10 05:47:06;;;;;;;7.60;5.07;;;9.80;99.90;;;;;;5051189;28;20923;-70
2024/03/10 05:49:31;;;;;;;8.57;4.83;;;9.80;99.90;;;;;;5052112;28;20467;-70
2024/03/10 05:51:57;;;;;;;5.87;4.30;;;9.80;99.90;;;;;;5054954;28;20210;-70
2024/03/10 05:54:22;;;;;;;6.30;4.37;;;9.80;99.90;;;;;;5053480;28;20258;-70
2024/03/10 05:56:48;;;;;;;6.63;4.43;;;9.80;99.90;;;;;;5053765;28;20584;-70
2024/03/10 05:59:13;;;;;;;6.60;4.07;;;9.80;99.90;;;;;;5054873;28;20697;-70
2024/03/10 06:01:40;;;;;;;5.80;4.47;;;9.80;99.90;;;;;;5054637;28;20187;-70
2024/03/10 06:04:06;;;;;;;8.03;5.20;;;9.80;99.90;;;;;;5054676;28;20546;-70
2024/03/10 06:06:32;;;;;;;5.20;4.00;;;9.80;99.90;;;;;;5054796;28;20492;-70
2024/03/10 06:08:58;;;;;;;7.10;4.63;;;9.80;99.90;;;;;;5054608;28;20500;-70
2024/03/10 06:11:23;;;;;;;8.43;5.27;;;9.70;99.90;;;;;;5054711;28;20409;-70
2024/03/10 06:13:50;;;;;;;6.27;5.30;;;9.70;99.90;;;;;;5053106;28;20171;-70
2024/03/10 06:16:15;;;;;;;6.50;4.10;;;9.60;99.90;;;;;;5054518;28;20249;-70
2024/03/10 06:26:56;;;;;;;5.87;3.90;;;9.60;99.90;;;;;;5055053;28;20435;-70
2024/03/10 06:29:22;;;;;;;7.27;4.87;;;9.50;99.90;;;;;;5052946;28;20938;-69
2024/03/10 06:31:48;;;;;;;6.93;5.03;;;9.50;99.90;;;;;;5054324;28;20167;-69
2024/03/10 06:34:14;;;;;;;8.83;4.70;;;9.50;99.90;;;;;;5053956;28;20881;-69
2024/03/10 06:36:40;;;;;;;5.37;4.37;;;9.50;99.90;;;;;;5054274;28;20171;-70
2024/03/10 06:39:07;;;;;;;7.00;4.70;;;9.40;99.90;;;;;;5054580;28;20190;-70
2024/03/10 06:41:33;;;;;;;6.70;4.77;;;9.50;99.90;;;;;;5052895;28;20944;-70
2024/03/10 06:44:04;;;;;;;6.73;4.17;;;9.50;99.90;;;;;;5053819;28;20437;-70
2024/03/10 06:46:29;;;;;;;6.50;5.40;;;9.50;99.90;;;;;;5053893;28;20237;-70
2024/03/10 06:48:55;;;;;;;7.63;5.63;;;9.50;99.90;;;;;;5053835;28;20449;-69
2024/03/10 06:51:21;;;;;;;6.20;5.20;;;9.60;99.90;;;;;;5053820;28;20167;-70
2024/03/10 06:53:47;;;;;;;8.23;4.60;;;9.70;99.90;;;;;;5053674;28;20405;-69
2024/03/10 06:56:14;;;;;;;6.40;4.73;;;9.70;99.90;;;;;;5053812;28;20398;-70
2024/03/10 06:58:43;;;;;;;5.50;4.43;;;9.80;99.90;;;;;;5053746;28;20592;-70
2024/03/10 07:01:10;;;;;;;8.43;5.97;;;9.80;99.90;;;;;;5053227;28;20954;-70
2024/03/10 07:03:35;;;;;;;25.50;11.83;;;9.90;99.90;;;;;;5053482;28;20414;-70
2024/03/10 07:06:01;;;;;;;16.03;8.93;;;10.00;99.90;;;;;;5053783;28;20458;-70
2024/03/10 07:08:27;;;;;;;9.20;6.80;;;10.00;99.90;;;;;;5053428;28;20202;-70
2024/03/10 07:10:53;;;;;;;9.00;5.07;;;10.10;99.90;;;;;;5052341;28;20167;-70
2024/03/10 07:13:18;;;;;;;7.63;5.10;;;10.10;99.90;;;;;;5053068;28;20532;-70
2024/03/10 07:15:45;;;;;;;6.97;4.60;;;10.10;99.90;;;;;;5053466;28;20542;-70
2024/03/10 07:18:10;;;;;;;10.97;6.00;;;10.10;99.90;;;;;;5053381;28;20195;-70
2024/03/10 07:20:36;;;;;;;7.30;5.40;;;10.20;99.90;;;;;;5053248;28;20412;-70
2024/03/10 07:23:02;;;;;;;8.03;5.30;;;10.30;99.90;;;;;;5053253;28;20540;-70
2024/03/10 07:25:30;;;;;;;6.00;5.00;;;10.30;99.90;;;;;;5052906;28;20175;-70
2024/03/10 07:27:56;;;;;;;6.80;4.67;;;10.40;99.90;;;;;;5053096;28;20499;-70
2024/03/10 07:30:22;;;;;;;7.00;4.70;;;10.50;99.90;;;;;;5051909;28;20410;-70
2024/03/10 07:32:47;;;;;;;6.73;4.37;;;10.50;99.90;;;;;;5053113;28;20711;-69
2024/03/10 07:35:13;;;;;;;9.03;4.80;;;10.60;99.90;;;;;;5051529;28;20166;-70
2024/03/10 07:37:40;;;;;;;9.63;5.50;;;10.70;99.90;;;;;;5052911;28;20186;-70
2024/03/10 07:40:15;;;;;;;6.30;4.30;;;10.70;99.90;;;;;;5053042;28;20481;-69
2024/03/10 07:42:43;;;;;;;5.13;4.40;;;10.80;99.90;;;;;;5051589;28;20440;-68
2024/03/10 07:45:10;;;;;;;8.53;5.10;;;10.90;99.90;;;;;;5052815;28;20401;-68
2024/03/10 07:47:41;;;;;;;5.27;4.20;;;11.00;99.90;;;;;;5052819;28;20429;-68
2024/03/10 07:50:12;;;;;;;6.67;4.80;;;11.10;99.90;;;;;;5052820;28;20409;-69
2024/03/10 07:52:39;;;;;;;7.50;6.10;;;11.30;99.90;;;;;;5052870;28;20428;-69
2024/03/10 07:55:05;;;;;;;7.57;5.40;;;11.40;99.90;;;;;;5052275;28;20405;-69
2024/03/10 07:57:34;;;;;;;7.90;5.33;;;11.50;99.90;;;;;;5052432;28;20791;-68
2024/03/10 08:00:05;;;;;;;6.70;5.30;;;11.70;99.90;;;;;;5052571;28;20407;-69
2024/03/10 08:02:31;;;;;;;6.03;4.70;;;11.80;99.90;;;;;;5052458;28;20492;-69
2024/03/10 08:04:57;;;;;;;7.93;6.43;;;11.90;99.90;;;;;;5052330;28;20893;-69
2024/03/10 08:07:23;;;;;;;8.90;6.20;;;12.20;99.90;;;;;;5052447;28;20563;-69
2024/03/10 08:09:48;;;;;;;6.30;4.73;;;12.30;99.90;;;;;;5052502;28;20226;-69
2024/03/10 08:12:14;;;;;;;6.50;5.20;;;12.70;99.90;;;;;;5051723;28;20449;-69
2024/03/10 08:14:40;;;;;;;8.70;4.90;;;13.00;99.70;;;;;;5050902;28;20171;-69
2024/03/10 08:17:05;;;;;;;10.03;6.17;;;13.80;98.50;;;;;;5051025;28;20167;-69
2024/03/10 08:19:32;;;;;;;7.17;5.00;;;14.40;95.30;;;;;;5052314;28;20171;-69
2024/03/10 08:21:58;;;;;;;6.60;5.43;;;14.90;92.50;;;;;;5052254;28;20413;-68
2024/03/10 08:24:23;;;;;;;7.70;5.07;;;15.40;91.00;;;;;;5052150;28;20775;-67
2024/03/10 08:26:49;;;;;;;7.70;5.70;;;15.80;87.60;;;;;;5050977;28;20269;-68
2024/03/10 08:29:15;;;;;;;7.37;6.30;;;16.00;82.10;;;;;;5051963;28;20194;-67
2024/03/10 08:31:41;;;;;;;6.80;5.43;;;15.90;78.10;;;;;;5051981;28;20746;-67
2024/03/10 08:34:08;;;;;;;9.87;5.60;;;15.70;75.60;;;;;;5051425;28;20195;-68
2024/03/10 08:36:40;;;;;;;9.93;5.47;;;15.60;76.00;;;;;;5052072;28;20400;-68
2024/03/10 08:39:09;;;;;;;7.87;5.57;;;15.60;76.40;;;;;;5051776;28;20424;-67
2024/03/10 08:41:35;;;;;;;6.67;5.00;;;15.90;75.50;;;;;;5050705;28;20444;-68
2024/03/10 08:44:03;;;;;;;8.77;6.43;;;16.00;70.90;;;;;;5051476;28;20772;-67
2024/03/10 08:46:30;;;;;;;7.83;5.70;;;16.00;70.60;;;;;;5051925;28;20411;-68
2024/03/10 08:48:56;;;;;;;8.10;7.00;;;16.10;69.70;;;;;;5051697;28;20980;-67
2024/03/10 08:51:23;;;;;;;10.70;7.13;;;16.20;69.20;;;;;;5051579;28;20413;-66
2024/03/10 08:53:49;;;;;;;7.10;5.50;;;16.40;68.70;;;;;;5051496;28;20442;-68
2024/03/10 08:56:14;;;;;;;6.83;5.43;;;16.30;65.60;;;;;;5051681;28;20833;-68
2024/03/10 08:58:41;;;;;;;6.43;5.30;;;16.80;66.10;;;;;;5051675;28;20515;-67
2024/03/10 09:01:07;;;;;;;6.93;6.23;;;18.00;65.20;;;;;;5051708;28;20162;-69
2024/03/10 09:03:33;;;;;;;7.53;6.23;;;18.90;59.20;;;;;;5051436;28;20405;-68
2024/03/10 09:05:59;;;;;;;6.20;4.83;;;20.30;59.60;;;;;;5051748;28;20175;-68
2024/03/10 09:08:24;;;;;;;8.30;5.80;;;22.20;56.40;;;;;;5051549;28;20194;-68
2024/03/10 09:10:50;;;;;;;7.20;6.47;;;24.10;51.40;;;;;;5051650;28;20169;-67
2024/03/10 09:13:16;;;;;;;5.70;5.20;;;25.20;43.70;;;;;;5051369;28;20163;-68
2024/03/10 09:15:42;;;;;;;6.33;5.73;;;25.50;40.00;;;;;;5051514;28;20397;-68
2024/03/10 09:18:08;;;;;;;8.80;5.67;;;25.90;37.90;;;;;;5051537;28;20974;-68
2024/03/10 09:20:34;;;;;;;6.93;6.30;;;26.30;37.40;;;;;;5050430;28;20236;-69
2024/03/10 09:23:01;;;;;;;5.30;4.80;;;26.90;36.00;;;;;;5051690;28;20534;-67
2024/03/10 09:25:30;;;;;;;6.27;5.67;;;27.20;34.80;;;;;;5055267;28;20409;-68
2024/03/10 09:27:56;;;;;;;6.97;5.70;;;27.50;34.20;;;;;;5055400;28;20433;-69
2024/03/10 09:30:23;;;;;;;7.87;6.57;;;28.30;32.90;;;;;;5055508;28;20810;-69
2024/03/10 09:32:54;;;;;;;7.60;6.53;;;28.00;29.60;;;;;;5055457;28;20917;-68
2024/03/10 09:35:28;;;;;;;7.07;5.60;;;27.30;30.00;;;;;;5055179;28;20405;-69
2024/03/10 09:37:58;;;;;;;6.10;5.50;;;26.50;30.20;;;;;;5055426;28;20479;-68
2024/03/10 09:40:31;;;;;;;7.87;6.20;;;25.40;31.70;;;;;;5055260;28;20452;-68
2024/03/10 09:43:11;;;;;;;8.00;6.63;;;25.00;32.40;;;;;;5055287;28;20750;-69
2024/03/10 09:45:51;;;;;;;6.43;5.40;;;26.90;31.70;;;;;;5054972;28;20408;-68
2024/03/10 09:48:17;;;;;;;6.37;5.13;;;27.30;30.10;;;;;;5055094;28;20445;-68
2024/03/10 09:50:48;;;;;;;7.33;5.73;;;26.80;30.00;;;;;;5055202;28;20408;-68
2024/03/10 09:53:15;;;;;;;6.87;5.77;;;26.40;30.50;;;;;;5054963;28;20175;-69
2024/03/10 09:55:41;;;;;;;8.83;5.77;;;26.30;31.40;;;;;;5054980;28;20414;-68
2024/03/10 09:58:15;;;;;;;7.50;6.23;;;26.30;30.80;;;;;;5054917;28;20734;-69
2024/03/10 10:00:44;;;;;;;8.40;6.47;;;26.80;30.50;;;;;;5037026;28;20502;-69
2024/03/10 10:03:12;;;;;;;7.43;5.33;;;27.80;30.00;;;;;;5053533;28;20421;-68
2024/03/10 10:05:43;;;;;;;6.20;5.63;;;29.20;30.10;;;;;;5054580;28;20978;-69
2024/03/10 10:08:12;;;;;;;7.70;6.90;;;30.60;28.70;;;;;;5054693;28;20967;-69
2024/03/10 10:10:51;;;;;;;6.33;5.83;;;31.10;26.90;;;;;;5054718;28;20931;-69
2024/03/10 10:13:23;;;;;;;6.13;5.53;;;30.80;26.70;;;;;;5054378;28;20763;-68
2024/03/10 10:15:50;;;;;;;6.43;5.70;;;31.40;28.00;;;;;;5053336;28;20504;-68
2024/03/10 10:18:16;;;;;;;6.77;6.10;;;32.70;27.50;;;;;;5054543;28;20523;-69
2024/03/10 10:20:46;;;;;;;6.90;6.30;;;33.90;25.70;;;;;;5053249;28;20518;-69
2024/03/10 10:23:13;;;;;;;6.27;5.67;;;35.90;25.40;;;;;;5054458;28;20173;-70
2024/03/10 10:25:42;;;;;;;5.80;5.30;;;38.00;23.90;;;;;;5054237;28;20412;-69
2024/03/10 10:28:12;;;;;;;7.83;6.47;;;39.90;23.40;;;;;;5054238;28;20544;-69
2024/03/10 10:30:40;;;;;;;6.90;6.30;;;40.90;21.20;;;;;;5054350;28;20412;-68
2024/03/10 10:33:08;;;;;;;6.07;5.57;;;40.90;19.80;;;;;;5054462;28;20892;-69
2024/03/10 10:35:34;;;;;;;7.23;6.40;;;40.10;20.00;;;;;;5053291;28;20414;-68
2024/03/10 10:38:04;;;;;;;5.30;4.80;;;38.30;19.30;;;;;;5054219;28;20978;-69
2024/03/10 10:40:33;;;;;;;7.60;6.90;;;37.60;20.70;;;;;;5054185;28;20888;-69
2024/03/10 10:42:59;;;;;;;6.97;6.30;;;38.20;20.70;;;;;;5054026;28;20413;-69
2024/03/10 10:45:24;;;;;;;5.30;4.90;;;38.80;20.50;;;;;;5052583;28;20175;-69
2024/03/10 10:47:52;;;;;;;5.87;5.37;;;38.40;20.10;;;;;;5053876;28;20190;-70
2024/03/10 10:50:31;;;;;;;7.07;5.63;;;37.50;20.60;;;;;;5053987;28;20171;-69
2024/03/10 10:52:56;;;;;;;7.37;6.57;;;36.80;20.80;;;;;;5053847;28;20789;-68
2024/03/10 10:55:22;;;;;;;6.67;6.13;;;35.90;20.60;;;;;;5053621;28;20410;-69
2024/03/10 10:57:48;;;;;;;6.67;6.07;;;34.90;21.10;;;;;;5053773;28;20191;-67
2024/03/10 11:00:27;;;;;;;6.60;6.00;;;34.10;21.60;;;;;;5053814;28;20167;-68
2024/03/10 11:03:16;;;;;;;6.90;6.20;;;32.50;21.30;;;;;;5053923;28;20167;-68
2024/03/10 11:05:43;;;;;;;5.40;5.00;;;31.00;22.50;;;;;;5053760;28;20916;-68
2024/03/10 11:08:13;;;;;;;7.10;5.80;;;29.50;23.50;;;;;;5053557;28;20556;-68
2024/03/10 11:10:39;;;;;;;7.17;6.47;;;28.60;24.50;;;;;;5053582;28;20811;-68
2024/03/10 11:13:08;;;;;;;5.80;5.30;;;27.70;24.90;;;;;;5053569;28;20461;-68
2024/03/10 11:15:35;;;;;;;6.53;5.57;;;27.90;25.60;;;;;;5053263;28;20428;-67
2024/03/10 11:18:21;;;;;;;5.60;4.70;;;27.90;25.20;;;;;;5053522;28;20425;-68
2024/03/10 11:20:47;;;;;;;8.60;6.30;;;27.60;24.90;;;;;;5053466;28;20412;-68
2024/03/10 11:23:13;;;;;;;7.03;6.43;;;27.00;25.40;;;;;;5052044;28;20422;-68
2024/03/10 11:25:49;;;;;;;6.40;5.77;;;26.20;25.50;;;;;;5053048;28;20765;-68
2024/03/10 11:28:15;;;;;;;5.90;5.33;;;25.60;26.10;;;;;;5053220;28;20201;-67
2024/03/10 11:30:40;;;;;;;5.87;5.20;;;24.90;26.30;;;;;;5053273;28;20492;-68
2024/03/10 11:33:07;;;;;;;7.30;6.00;;;24.30;27.40;;;;;;5053181;28;20174;-67
2024/03/10 11:35:34;;;;;;;6.90;6.20;;;23.90;28.00;;;;;;5052957;28;20193;-68
2024/03/10 11:38:00;;;;;;;8.80;6.57;;;23.50;28.40;;;;;;5053036;28;20787;-68
2024/03/10 11:40:30;;;;;;;6.77;6.13;;;23.80;28.80;;;;;;5053019;28;20401;-69
2024/03/10 11:42:58;;;;;;;6.73;5.90;;;25.40;28.70;;;;;;5052990;28;20408;-68
2024/03/10 11:45:25;;;;;;;6.17;5.50;;;27.00;27.20;;;;;;5052725;28;20431;-68
2024/03/10 11:47:51;;;;;;;5.53;4.80;;;27.20;26.30;;;;;;5051782;28;20761;-69
2024/03/10 11:50:16;;;;;;;6.20;5.60;;;27.50;26.30;;;;;;5052833;28;20405;-68
2024/03/10 11:52:42;;;;;;;5.40;4.90;;;27.80;26.30;;;;;;5052675;28;20187;-68
2024/03/10 11:55:14;;;;;;;6.40;5.80;;;28.10;26.10;;;;;;5052509;28;20194;-69
2024/03/10 11:57:40;;;;;;;6.97;5.40;;;29.10;25.70;;;;;;5052691;28;20186;-69
2024/03/10 12:00:07;;;;;;;6.83;5.70;;;29.90;25.20;;;;;;5052553;28;20402;-69
2024/03/10 12:02:32;;;;;;;6.60;5.90;;;30.10;24.80;;;;;;5051291;28;20421;-69
2024/03/10 12:05:01;;;;;;;7.50;6.03;;;29.70;24.10;;;;;;5052387;28;20509;-68
2024/03/10 12:07:26;;;;;;;6.70;5.90;;;28.90;23.90;;;;;;5052539;28;20190;-69
2024/03/10 12:09:55;;;;;;;6.87;5.90;;;28.20;24.20;;;;;;5052405;28;20990;-68
2024/03/10 12:12:28;;;;;;;6.90;5.53;;;27.70;24.90;;;;;;5052532;28;20183;-68
2024/03/10 12:14:54;;;;;;;6.40;5.20;;;27.40;25.90;;;;;;5052214;28;20385;-68
2024/03/10 12:17:19;;;;;;;6.40;5.80;;;27.60;25.80;;;;;;5052287;28;20852;-68
2024/03/10 12:19:45;;;;;;;5.70;5.20;;;28.30;26.30;;;;;;5052341;28;20171;-68
2024/03/10 12:22:11;;;;;;;6.37;5.77;;;29.20;26.00;;;;;;5052481;28;20179;-68
2024/03/10 12:24:40;;;;;;;8.97;6.00;;;29.40;25.00;;;;;;5052036;28;20254;-68
2024/03/10 12:27:07;;;;;;;7.30;6.43;;;29.10;24.90;;;;;;5052018;28;20406;-67
2024/03/10 12:29:42;;;;;;;6.73;6.00;;;28.80;25.30;;;;;;5052142;28;20479;-68
2024/03/10 12:32:08;;;;;;;6.37;5.73;;;28.10;25.20;;;;;;5052123;28;20469;-68
2024/03/10 12:34:34;;;;;;;6.50;5.90;;;27.50;26.00;;;;;;5050571;28;20421;-67
2024/03/10 12:37:01;;;;;;;6.33;5.27;;;26.80;26.00;;;;;;5051996;28;20171;-68
2024/03/10 12:39:27;;;;;;;6.57;5.97;;;26.30;26.50;;;;;;5050763;28;20178;-69
2024/03/10 12:41:53;;;;;;;6.13;5.63;;;25.80;27.00;;;;;;5051870;28;20415;-68
2024/03/10 12:44:20;;;;;;;7.20;6.37;;;25.50;27.30;;;;;;5051777;28;20373;-68
2024/03/10 12:46:45;;;;;;;6.80;5.53;;;25.30;28.20;;;;;;5051971;28;20409;-68
2024/03/10 12:49:11;;;;;;;6.90;6.17;;;25.70;28.30;;;;;;5051786;28;21021;-68
2024/03/10 12:51:37;;;;;;;7.67;6.40;;;26.50;28.30;;;;;;5051768;28;20174;-69
2024/03/10 12:54:03;;;;;;;7.43;6.27;;;28.00;28.30;;;;;;5051515;28;20410;-68
2024/03/10 12:56:29;;;;;;;6.63;5.90;;;29.20;26.30;;;;;;5051772;28;20310;-69
2024/03/10 12:58:54;;;;;;;6.80;6.17;;;30.10;25.50;;;;;;5051334;28;20982;-67
2024/03/10 13:01:21;;;;;;;6.73;6.03;;;31.00;25.30;;;;;;5051794;28;20167;-68
2024/03/10 13:03:47;;;;;;;6.30;5.87;;;30.50;24.00;;;;;;5050215;28;20233;-68
2024/03/10 13:06:14;;;;;;;6.03;5.43;;;30.00;24.20;;;;;;5050638;28;20424;-68
2024/03/10 13:08:40;;;;;;;6.67;5.70;;;29.70;25.40;;;;;;5051589;28;20548;-68
2024/03/10 13:11:06;;;;;;;4.90;4.40;;;29.50;26.00;;;;;;5051508;28;20459;-68
2024/03/10 13:13:32;;;;;;;8.67;6.53;;;29.20;26.20;;;;;;5042963;28;20846;-68